Terminal Aerodrome Forecast
Issued by NWS Cleveland, OH

Home | Current Version | Previous Version | Graphics & Text | Print | Product List | Glossary On
Versions: 1 2 3 4 5 6 7 8 9 10 11 12 13 14 15 16 17 18
000
FTUS41 KCLE 261726
TAFTOL
TAF
KTOL 261726Z 2618/2718 27014G22KT P6SM SCT020 OVC080
     FM262200 25010KT P6SM SKC
     FM271600 25015G25KT P6SM SKC=

USA.gov is the U.S. government's official web portal to all federal, state and local government web resources and services.